Great Falls/Malmstrom AFB, Montana
Current Conditions -  °F | °C
As of 11:53 AM on Wednesday 26 Nov 2014 (Local Time) from KGTF Reporting Station
Light Snow Light Snow  
Wind Chill: 22°   Ceiling: 300
Heat Index: 30°   Visibility: 0.5mi
Dew Point: 29°   Wind: 9mph
Humidity: 96%   Direction: 90°E
Pressure: 30.12"   Gusts: NA
Location:  47.47°N, 111.32°W
Report Text: KGTF 261853Z 09008KT 1/2SM -SN BR BKN003 OVC015 M01/M02 A3012 RMK AO2 SFC VIS 3/4 SLP244 P0002 T10111017
Loading
Personal Weather Stations






























Interactive Weather Map New forecast layout! Learn more

10-Day Weather Forecast

Advertisements
Track Severe Weather on mobile